Winder, Georgia
Current Conditions -  °F | °C
As of 6:45 AM on Sunday 21 Dec 2014 (Local Time) from KLZU Reporting Station
Light Rain Light Rain  
Wind Chill: 42°   Ceiling: 400
Heat Index: 45°   Visibility: 3mi
Dew Point: 37°   Wind: 5mph
Humidity: 76%   Direction: 50°NE
Pressure: 30.2"   Gusts: NA
Location:  33.99°N, 83.72°W
Report Text: KLZU 211145Z 05004KT 03SM -RABR OVC004 07/03 A3020 RMK ILS APCH RWY 25 ATIS F LL
Loading
Personal Weather Stations






























Interactive Weather Map New forecast layout! Learn more

10-Day Weather Forecast

Advertisements
Track Severe Weather on mobile